Time;durP1;ratioP1;P1;durP2;ratioP2;P2;SDS_P1;SDS_P2;PMS_P1;PMS_P2;Temp;Humidity;BMP_temperature;BMP_pressure;BME280_temperature;BME280_humidity;BME280_pressure;Samples;Min_cycle;Max_cycle;Signal;HPM_P1;HPM_P2
2022/11/07 00:00:58;;;;;;;48.13;26.70;;;;;;;6.04;72.35;100111.66;4974616;28;100917;-91
2022/11/07 00:03:24;;;;;;;46.00;27.23;;;;;;;5.95;72.95;100106.63;4974943;28;97361;-90
2022/11/07 00:05:50;;;;;;;49.60;26.17;;;;;;;5.95;72.72;100116.19;4987572;28;96703;-90
2022/11/07 00:08:15;;;;;;;49.23;26.63;;;;;;;5.91;72.81;100112.78;4941951;28;96720;-91
2022/11/07 00:10:41;;;;;;;51.57;26.20;;;;;;;5.90;73.35;100113.63;4968195;28;101570;-90
2022/11/07 00:13:06;;;;;;;46.30;26.53;;;;;;;6.10;72.90;100118.50;4962071;28;100539;-88
2022/11/07 00:15:32;;;;;;;42.97;22.83;;;;;;;5.97;72.69;100110.09;4942643;28;96994;-91
2022/11/07 00:17:57;;;;;;;46.80;24.03;;;;;;;6.01;72.43;100106.50;4962461;28;96558;-90
2022/11/07 00:20:23;;;;;;;42.90;23.90;;;;;;;6.08;72.39;100107.28;4982816;28;97409;-90
2022/11/07 00:22:49;;;;;;;44.10;23.53;;;;;;;6.16;71.99;100118.41;4985646;28;100933;-91
2022/11/07 00:25:14;;;;;;;42.43;22.33;;;;;;;6.07;72.89;100121.19;4943203;28;96966;-90
2022/11/07 00:27:40;;;;;;;42.67;22.27;;;;;;;6.28;72.01;100110.38;4974421;28;96646;-91
2022/11/07 00:30:06;;;;;;;39.40;22.17;;;;;;;6.18;72.10;100110.56;4958055;28;100390;-91
2022/11/07 00:32:31;;;;;;;35.87;20.50;;;;;;;6.19;72.85;100125.31;4957872;28;100047;-90
2022/11/07 00:34:57;;;;;;;35.33;19.83;;;;;;;6.35;71.96;100113.69;4975140;28;97076;-92
2022/11/07 00:37:22;;;;;;;38.07;21.67;;;;;;;6.50;71.46;100125.56;4942059;28;96921;-91
2022/11/07 00:39:48;;;;;;;37.80;20.60;;;;;;;6.31;71.97;100117.25;4962172;28;101198;-91
2022/11/07 00:42:13;;;;;;;35.80;20.80;;;;;;;6.32;71.52;100103.34;4962213;28;101658;-90
2022/11/07 00:44:39;;;;;;;39.23;21.47;;;;;;;6.31;71.88;100112.03;4961537;28;97027;-91
2022/11/07 00:47:04;;;;;;;36.17;21.87;;;;;;;6.26;72.06;100108.66;4941553;28;97025;-91
2022/11/07 00:49:30;;;;;;;40.43;23.07;;;;;;;6.07;72.89;100113.38;4986346;28;97368;-90
2022/11/07 00:51:55;;;;;;;38.90;22.07;;;;;;;5.85;73.11;100112.88;4953889;28;99942;-90
2022/11/07 00:54:21;;;;;;;35.17;20.63;;;;;;;5.84;73.38;100105.94;4953224;28;97057;-91
2022/11/07 00:56:47;;;;;;;38.67;21.67;;;;;;;5.73;73.62;100087.03;4940226;28;96954;-90
2022/11/07 00:59:12;;;;;;;38.67;21.53;;;;;;;5.87;73.55;100111.09;4955541;28;101315;-89
2022/11/07 01:01:38;;;;;;;38.43;22.57;;;;;;;5.58;73.81;100067.34;4950163;28;100273;-90
2022/11/07 01:06:48;;;;;;;35.43;20.07;;;;;;;5.67;74.30;100098.41;4974184;28;97238;-91
2022/11/07 01:09:17;;;;;;;38.80;21.33;;;;;;;5.62;73.73;100077.69;4958947;28;101513;-88
2022/11/07 01:11:43;;;;;;;36.20;20.47;;;;;;;5.75;73.56;100087.88;4970546;28;100457;-90
2022/11/07 01:14:09;;;;;;;33.60;20.40;;;;;;;5.84;73.04;100090.31;4975772;28;97173;-90
2022/11/07 01:16:35;;;;;;;42.03;22.10;;;;;;;5.93;72.72;100078.84;4973795;28;96900;-89
2022/11/07 01:19:04;;;;;;;38.00;22.00;;;;;;;5.95;72.50;100085.78;4946984;28;101463;-90
2022/11/07 01:21:30;;;;;;;39.13;21.43;;;;;;;5.89;72.50;100072.84;4960768;28;98006;-88
2022/11/07 01:23:56;;;;;;;35.77;20.33;;;;;;;5.82;72.41;100055.63;4960205;28;96864;-91
2022/11/07 01:26:21;;;;;;;38.47;21.93;;;;;;;5.83;72.60;100062.56;4955044;28;97320;-90
2022/11/07 01:28:47;;;;;;;33.37;19.80;;;;;;;5.90;72.13;100064.13;4972628;28;101235;-91
2022/11/07 01:31:14;;;;;;;35.67;20.60;;;;;;;5.95;72.00;100064.09;4966516;28;101365;-90
2022/11/07 01:33:40;;;;;;;36.20;20.73;;;;;;;5.99;71.76;100064.03;4959093;28;96798;-90
2022/11/07 01:36:08;;;;;;;35.10;20.60;;;;;;;6.10;71.87;100056.81;4954111;28;96627;-91
2022/11/07 01:38:38;;;;;;;31.43;19.30;;;;;;;6.10;71.07;100056.81;4953728;28;101972;-90
2022/11/07 01:41:20;;;;;;;34.00;19.23;;;;;;;6.03;71.25;100042.22;4954331;28;101978;-90
2022/11/07 01:43:54;;;;;;;31.67;17.92;;;;;;;6.06;71.62;100046.50;4969460;28;96938;-91
2022/11/07 01:46:24;;;;;;;33.57;19.90;;;;;;;6.03;71.27;100039.59;4990645;28;96734;-90
2022/11/07 01:49:19;;;;;;;31.67;18.27;;;;;;;6.01;71.71;100037.91;4966936;28;101314;-91
2022/11/07 01:51:48;;;;;;;32.33;18.40;;;;;;;6.01;71.85;100017.91;4948435;28;101912;-90
2022/11/07 01:54:16;;;;;;;28.40;16.70;;;;;;;6.01;71.69;100025.75;4969477;28;96875;-90
2022/11/07 01:56:43;;;;;;;29.83;17.57;;;;;;;6.09;71.98;100031.66;4951784;28;97011;-89
2022/11/07 01:59:10;;;;;;;28.87;17.20;;;;;;;6.11;71.72;100009.03;4990340;28;98395;-89
2022/11/07 02:01:36;;;;;;;27.27;16.57;;;;;;;6.16;72.00;100018.50;4972378;28;101736;-90
2022/11/07 02:04:02;;;;;;;29.17;18.33;;;;;;;6.11;71.73;100001.22;4957618;28;96781;-90
2022/11/07 02:06:36;;;;;;;28.40;16.63;;;;;;;6.10;71.36;99986.47;4976251;28;96791;-90
2022/11/07 02:09:03;;;;;;;30.77;16.97;;;;;;;6.40;71.41;100004.97;4957975;28;100440;-90
2022/11/07 02:11:29;;;;;;;27.93;17.20;;;;;;;6.33;71.33;99996.41;4972157;28;98423;-90
2022/11/07 02:13:54;;;;;;;27.10;16.23;;;;;;;6.12;72.04;99989.91;4981335;28;96682;-90
2022/11/07 02:16:20;;;;;;;27.47;15.90;;;;;;;6.18;72.18;99988.91;4973670;28;96853;-91
2022/11/07 02:18:45;;;;;;;28.37;15.13;;;;;;;6.16;72.47;99988.06;4973033;28;100953;-90
2022/11/07 02:21:35;;;;;;;23.03;13.57;;;;;;;6.22;73.15;99985.34;4977813;28;101373;-91
2022/11/07 02:24:22;;;;;;;24.50;13.70;;;;;;;6.43;72.92;99973.59;4979694;28;96841;-90
2022/11/07 02:26:48;;;;;;;22.97;14.00;;;;;;;6.64;73.26;99985.28;4955659;28;97076;-91
2022/11/07 02:29:14;;;;;;;20.37;12.50;;;;;;;6.42;73.54;99991.88;4989106;28;100174;-90
2022/11/07 02:31:39;;;;;;;24.43;13.10;;;;;;;6.47;73.81;99983.06;4967877;28;101319;-90
2022/11/07 02:34:05;;;;;;;20.40;12.53;;;;;;;6.60;73.64;99988.84;4952179;28;96782;-90
2022/11/07 02:36:30;;;;;;;19.43;11.77;;;;;;;6.25;74.00;99930.53;4960972;28;96897;-89
2022/11/07 02:38:57;;;;;;;22.00;12.13;;;;;;;6.58;74.32;99986.28;4961401;28;101640;-91
2022/11/07 02:41:26;;;;;;;22.33;12.73;;;;;;;6.44;74.68;99977.91;4975936;28;101452;-90
2022/11/07 02:43:55;;;;;;;22.63;12.37;;;;;;;6.29;74.32;99968.69;4962971;28;97411;-90
2022/11/07 02:46:21;;;;;;;21.37;12.27;;;;;;;6.56;74.48;99998.50;4959970;28;97244;-90
2022/11/07 02:48:52;;;;;;;20.43;12.67;;;;;;;6.66;74.13;99998.28;4975989;28;99545;-90
2022/11/07 02:51:18;;;;;;;19.65;13.45;;;;;;;6.64;74.33;100000.09;4958671;28;100419;-90
2022/11/07 02:53:44;;;;;;;25.07;12.40;;;;;;;6.73;74.06;99992.03;4959338;28;98198;-90
2022/11/07 02:56:09;;;;;;;17.47;11.97;;;;;;;6.67;74.51;100000.88;4982433;28;96830;-89
2022/11/07 02:58:35;;;;;;;24.77;13.83;;;;;;;6.59;74.57;99992.34;4959348;28;101152;-90
2022/11/07 03:01:07;;;;;;;21.80;14.00;;;;;;;6.54;75.09;99986.38;4977391;28;101223;-90
2022/11/07 03:03:38;;;;;;;20.00;12.63;;;;;;;6.52;74.78;99968.19;4944070;28;96656;-90
2022/11/07 03:06:04;;;;;;;17.23;12.20;;;;;;;6.65;74.96;99986.13;4946814;28;96820;-89
2022/11/07 03:08:30;;;;;;;20.47;12.93;;;;;;;6.65;74.81;99992.22;4963865;28;101587;-90
2022/11/07 03:10:56;;;;;;;17.37;11.00;;;;;;;6.67;74.95;100000.88;4982406;28;97641;-89
2022/11/07 03:13:22;;;;;;;21.67;11.80;;;;;;;6.57;74.86;99989.81;4970057;28;96907;-89
2022/11/07 03:15:48;;;;;;;16.67;10.93;;;;;;;6.75;74.81;100021.56;4975376;28;96856;-89
2022/11/07 03:18:14;;;;;;;21.00;11.47;;;;;;;6.74;74.89;100012.00;4951858;28;101626;-90
2022/11/07 03:20:39;;;;;;;20.30;11.73;;;;;;;6.71;74.13;100010.31;4981237;28;97879;-90
2022/11/07 03:23:05;;;;;;;17.30;11.97;;;;;;;6.79;74.08;100021.44;4962609;28;97124;-89
2022/11/07 03:25:30;;;;;;;17.20;10.67;;;;;;;6.77;74.19;100007.56;4942940;28;97238;-90
2022/11/07 03:27:56;;;;;;;18.37;10.40;;;;;;;6.79;74.23;100028.41;4972322;28;100456;-90
2022/11/07 03:30:22;;;;;;;20.40;11.13;;;;;;;6.79;74.42;100024.06;4958510;28;99619;-88
2022/11/07 03:32:50;;;;;;;15.50;10.43;;;;;;;6.77;74.13;100010.19;4965365;28;96651;-90
2022/11/07 03:35:16;;;;;;;17.20;10.80;;;;;;;6.85;73.92;100025.66;4975026;28;97340;-90
2022/11/07 03:37:44;;;;;;;17.87;10.77;;;;;;;6.79;74.19;100025.81;4939129;28;100733;-89
2022/11/07 03:40:10;;;;;;;15.68;10.65;;;;;;;6.69;74.40;100014.75;4953528;28;100060;-90
2022/11/07 03:42:40;;;;;;;19.48;11.35;;;;;;;6.84;74.27;100036.16;4973060;28;97593;-89
2022/11/07 03:45:06;;;;;;;20.87;11.60;;;;;;;6.81;74.52;100037.06;4972517;28;96752;-91
2022/11/07 03:47:36;;;;;;;17.13;11.50;;;;;;;7.05;73.63;100040.00;4973179;28;102033;-90
2022/11/07 03:50:03;;;;;;;19.40;12.03;;;;;;;7.07;73.21;100028.63;4972061;28;101566;-90
2022/11/07 03:52:28;;;;;;;20.27;11.47;;;;;;;6.79;73.63;100020.59;4993593;28;96715;-89
2022/11/07 03:54:54;;;;;;;19.03;12.30;;;;;;;6.93;73.64;100038.53;4942596;28;98032;-89
2022/11/07 03:57:19;;;;;;;18.07;11.10;;;;;;;6.92;73.57;100040.31;4979934;28;98506;-90
2022/11/07 03:59:45;;;;;;;18.58;10.88;;;;;;;6.96;73.71;100031.50;4973121;28;97753;-89
2022/11/07 04:02:11;;;;;;;18.20;11.47;;;;;;;6.81;73.90;100029.25;4959007;28;97096;-90
2022/11/07 04:04:37;;;;;;;23.60;10.87;;;;;;;6.86;73.78;100024.75;4949990;28;96915;-90
2022/11/07 04:07:02;;;;;;;20.63;11.00;;;;;;;6.96;73.92;100041.06;4963723;28;100836;-90
2022/11/07 04:09:28;;;;;;;21.77;11.60;;;;;;;6.78;74.34;100029.31;4977985;28;101697;-90
2022/11/07 04:17:22;;;;;;;18.70;10.30;;;;;;;6.89;74.04;100037.72;4980576;28;101536;-90
2022/11/07 04:19:49;;;;;;;18.83;11.67;;;;;;;7.14;73.04;100037.16;4943589;28;100847;-90
2022/11/07 04:22:15;;;;;;;18.93;11.67;;;;;;;6.97;74.21;100042.78;4979592;28;97294;-90
2022/11/07 04:24:41;;;;;;;21.93;11.07;;;;;;;6.73;74.47;100016.38;4948744;28;96986;-90
2022/11/07 04:29:55;;;;;;;18.33;10.47;;;;;;;6.84;74.43;100028.31;4971099;28;101192;-88
2022/11/07 04:32:24;;;;;;;20.83;10.07;;;;;;;6.83;74.59;100031.81;4976595;28;97629;-90
2022/11/07 04:34:50;;;;;;;16.75;10.43;;;;;;;6.84;74.71;100039.63;4975863;28;96784;-91
2022/11/07 04:37:17;;;;;;;18.67;11.70;;;;;;;6.92;74.16;100037.69;4971867;28;97976;-90
2022/11/07 04:39:42;;;;;;;17.50;11.23;;;;;;;6.86;74.72;100036.94;4954220;28;99807;-89
2022/11/07 04:42:08;;;;;;;19.73;10.50;;;;;;;6.86;74.63;100027.38;4971377;28;96779;-90
2022/11/07 04:44:33;;;;;;;18.37;11.40;;;;;;;6.96;74.46;100009.75;4955035;28;96678;-90
2022/11/07 04:46:59;;;;;;;27.90;12.27;;;;;;;7.02;73.98;100015.69;4991021;28;98291;-91
2022/11/07 04:49:24;;;;;;;19.90;12.03;;;;;;;7.16;74.33;100024.94;4971330;28;100125;-90
2022/11/07 04:51:54;;;;;;;18.05;11.18;;;;;;;7.09;73.41;100000.72;4952736;28;96853;-89
2022/11/07 04:54:20;;;;;;;20.67;11.68;;;;;;;7.20;73.36;100013.50;4942968;28;96916;-90
2022/11/07 04:56:45;;;;;;;17.00;10.68;;;;;;;7.11;74.09;100027.66;4969856;28;98599;-89
2022/11/07 04:59:11;;;;;;;18.50;11.30;;;;;;;6.95;74.74;100037.63;4972620;28;101176;-90
2022/11/07 05:01:36;;;;;;;22.33;10.77;;;;;;;7.14;74.11;100022.34;4941221;28;96879;-90
2022/11/07 05:04:02;;;;;;;18.27;11.47;;;;;;;7.17;74.14;100029.25;4976592;28;97089;-90
2022/11/07 05:06:27;;;;;;;16.50;10.13;;;;;;;7.20;74.08;100022.19;4956231;28;100090;-90
2022/11/07 05:08:53;;;;;;;17.60;11.00;;;;;;;7.22;74.36;100016.94;4947155;28;101165;-89
2022/11/07 05:11:18;;;;;;;20.47;11.10;;;;;;;7.27;74.08;100007.22;4956644;28;96776;-89
2022/11/07 05:13:44;;;;;;;19.00;10.40;;;;;;;7.05;74.15;99985.19;4991499;28;97399;-89
2022/11/07 05:16:15;;;;;;;18.40;10.50;;;;;;;7.12;74.63;99990.19;4956811;28;98608;-90
2022/11/07 05:18:41;;;;;;;20.17;10.88;;;;;;;7.12;74.51;99999.78;4978136;28;97172;-90
2022/11/07 05:21:07;;;;;;;17.70;10.87;;;;;;;6.99;74.66;99999.25;4970535;28;97134;-89
2022/11/07 05:23:32;;;;;;;20.90;11.30;;;;;;;7.07;75.06;100022.53;4955197;28;97348;-90
2022/11/07 05:25:58;;;;;;;18.30;10.57;;;;;;;7.06;74.88;99999.94;4973805;28;98669;-90
2022/11/07 05:28:29;;;;;;;18.92;11.23;;;;;;;7.14;75.05;100027.56;4971504;28;98236;-90
2022/11/07 05:30:57;;;;;;;20.53;11.60;;;;;;;7.17;75.29;100040.56;4941015;28;97006;-90
2022/11/07 05:33:23;;;;;;;23.10;12.20;;;;;;;7.14;75.71;100045.00;4957210;28;96757;-90
2022/11/07 05:35:49;;;;;;;22.33;11.68;;;;;;;7.09;75.62;100039.88;4956859;28;101382;-90
2022/11/07 05:38:14;;;;;;;18.92;11.32;;;;;;;7.28;75.24;100044.66;4971696;28;101295;-90
2022/11/07 05:40:40;;;;;;;18.10;10.40;;;;;;;7.53;74.16;100047.50;4971171;28;96947;-90
2022/11/07 05:43:11;;;;;;;19.50;10.70;;;;;;;7.25;74.39;100027.31;4991677;28;96899;-90
2022/11/07 05:45:37;;;;;;;18.17;11.27;;;;;;;7.28;75.14;100055.97;4956230;28;100455;-89
2022/11/07 05:48:05;;;;;;;18.52;10.75;;;;;;;7.30;74.71;100037.63;4937374;28;101454;-89
2022/11/07 05:50:31;;;;;;;16.30;11.00;;;;;;;7.34;74.37;100029.69;4962764;28;96753;-89
2022/11/07 05:52:57;;;;;;;17.07;10.83;;;;;;;7.41;74.20;100048.66;4974178;28;97281;-90
2022/11/07 05:55:23;;;;;;;15.98;9.85;;;;;;;7.40;74.87;100063.47;4939552;28;100337;-89
2022/11/07 05:57:49;;;;;;;22.70;11.43;;;;;;;7.41;74.30;100054.75;4956792;28;101029;-89
2022/11/07 06:00:15;;;;;;;17.60;10.93;;;;;;;7.34;75.15;100061.03;4955256;28;96796;-91
2022/11/07 06:02:41;;;;;;;19.35;10.45;;;;;;;7.51;74.78;100060.59;4935414;28;97196;-90
2022/11/07 06:05:07;;;;;;;21.90;11.93;;;;;;;7.31;75.15;100053.28;4973622;28;98333;-90
2022/11/07 06:07:36;;;;;;;25.70;11.68;;;;;;;7.33;75.52;100068.88;4976289;28;100905;-90
2022/11/07 06:10:03;;;;;;;20.73;11.90;;;;;;;7.29;75.88;100065.50;4975847;28;96826;-90
2022/11/07 06:12:29;;;;;;;18.77;10.30;;;;;;;7.54;74.77;100088.41;4968035;28;97053;-90
2022/11/07 06:14:54;;;;;;;18.08;9.98;;;;;;;7.60;74.35;100075.19;4975322;28;100296;-90
2022/11/07 06:17:20;;;;;;;17.60;9.67;;;;;;;7.74;73.71;100090.47;4964888;28;100566;-91
2022/11/07 06:19:46;;;;;;;15.68;10.40;;;;;;;7.65;74.41;100105.53;4973807;28;96994;-89
2022/11/07 06:22:11;;;;;;;21.65;10.93;;;;;;;7.59;74.43;100099.56;4979367;28;96785;-90
2022/11/07 06:24:37;;;;;;;17.52;10.50;;;;;;;7.64;74.48;100105.56;4953743;28;99946;-88
2022/11/07 06:27:02;;;;;;;20.50;11.38;;;;;;;7.51;75.42;100088.50;4963813;28;100714;-90
2022/11/07 06:29:28;;;;;;;14.73;10.50;;;;;;;7.64;75.16;100095.09;4989962;28;96667;-91
2022/11/07 06:31:53;;;;;;;21.38;10.60;;;;;;;7.71;74.46;100113.22;4944262;28;96825;-90
2022/11/07 06:34:19;;;;;;;19.35;9.95;;;;;;;7.71;74.44;100122.81;4976489;28;98333;-90
2022/11/07 06:36:44;;;;;;;20.35;10.57;;;;;;;7.59;75.01;100099.56;4960888;28;101468;-89
2022/11/07 06:39:10;;;;;;;17.00;10.07;;;;;;;7.66;74.92;100120.28;4958751;28;96543;-90
2022/11/07 06:41:36;;;;;;;22.90;10.13;;;;;;;7.72;74.81;100124.50;4961707;28;97522;-90
2022/11/07 06:44:01;;;;;;;15.93;9.88;;;;;;;7.80;74.75;100130.41;4986767;28;98574;-90
2022/11/07 06:46:27;;;;;;;17.90;10.65;;;;;;;7.81;74.75;100139.94;4961626;28;101140;-90
2022/11/07 06:48:53;;;;;;;18.25;10.30;;;;;;;7.83;74.90;100130.31;4952627;28;96975;-90
2022/11/07 06:51:18;;;;;;;17.08;9.82;;;;;;;7.85;74.75;100133.75;4968120;28;97997;-90
2022/11/07 06:53:44;;;;;;;17.63;10.02;;;;;;;7.85;74.79;100123.31;4954997;28;101160;-90
2022/11/07 06:56:13;;;;;;;15.75;9.75;;;;;;;8.04;74.34;100141.97;4967226;28;101614;-91
2022/11/07 06:58:38;;;;;;;13.10;8.98;;;;;;;8.06;74.00;100140.19;4934805;28;96980;-89
2022/11/07 07:01:07;;;;;;;11.43;8.40;;;;;;;8.17;74.21;100142.47;4965120;28;97787;-89
2022/11/07 07:03:33;;;;;;;14.02;8.85;;;;;;;8.26;73.64;100155.34;4969317;28;96970;-89
2022/11/07 07:06:03;;;;;;;18.88;8.60;;;;;;;8.30;72.86;100156.97;4969050;28;97954;-90
2022/11/07 07:08:29;;;;;;;16.55;8.65;;;;;;;8.33;73.09;100148.16;4963809;28;97015;-89
2022/11/07 07:10:55;;;;;;;16.67;8.38;;;;;;;8.41;73.11;100161.06;4967147;28;97192;-89
2022/11/07 07:13:21;;;;;;;17.60;9.07;;;;;;;8.31;72.62;100144.72;4981777;28;101454;-89
2022/11/07 07:15:54;;;;;;;11.75;8.88;;;;;;;8.39;72.30;100161.97;4955416;28;101031;-88
2022/11/07 07:18:20;;;;;;;14.90;8.80;;;;;;;8.35;72.45;100147.22;4972279;28;96839;-89
2022/11/07 07:20:46;;;;;;;16.27;8.57;;;;;;;8.50;72.25;100164.28;4954416;28;96985;-90
2022/11/07 07:23:12;;;;;;;15.18;9.07;;;;;;;8.64;71.69;100178.72;4937512;28;100582;-89
2022/11/07 07:25:38;;;;;;;11.23;8.57;;;;;;;8.63;72.38;100171.78;4969564;28;101152;-90
2022/11/07 07:28:03;;;;;;;12.07;8.38;;;;;;;8.70;71.69;100182.03;4949870;28;96864;-88
2022/11/07 07:30:29;;;;;;;26.73;9.55;;;;;;;8.82;71.64;100189.53;4952514;28;96823;-89
2022/11/07 07:32:54;;;;;;;14.55;9.50;;;;;;;8.85;71.23;100193.84;4945792;28;101755;-92
2022/11/07 07:35:20;;;;;;;13.95;9.32;;;;;;;8.90;71.31;100199.81;5001155;28;100334;-89
2022/11/07 07:37:50;;;;;;;12.40;9.20;;;;;;;8.78;71.77;100173.97;4952270;28;96919;-88
2022/11/07 07:40:17;;;;;;;17.02;10.05;;;;;;;8.92;70.87;100197.13;4972803;28;97861;-87
2022/11/07 07:42:42;;;;;;;21.70;10.45;;;;;;;8.86;70.96;100195.53;4956562;28;100311;-85
2022/11/07 07:45:10;;;;;;;16.38;10.07;;;;;;;8.96;71.32;100198.72;4960751;28;99832;-92
2022/11/07 07:47:35;;;;;;;20.05;10.73;;;;;;;8.97;71.12;100200.47;4977622;28;96850;-89
2022/11/07 07:50:01;;;;;;;19.70;9.98;;;;;;;9.00;71.52;100205.63;4960822;28;97499;-88
2022/11/07 07:52:27;;;;;;;20.10;11.48;;;;;;;9.02;71.23;100212.53;4934935;28;100527;-87
2022/11/07 07:54:53;;;;;;;20.02;11.63;;;;;;;9.06;71.15;100218.53;4938395;28;100396;-89
2022/11/07 07:57:18;;;;;;;17.50;10.32;;;;;;;9.18;71.12;100220.78;4955778;28;97069;-89
2022/11/07 07:59:44;;;;;;;16.33;11.00;;;;;;;9.10;70.60;100201.81;4973043;28;97120;-83
2022/11/07 08:02:10;;;;;;;22.83;11.90;;;;;;;9.26;70.66;100228.41;4956046;28;101270;-90
2022/11/07 08:04:36;;;;;;;18.80;10.65;;;;;;;9.28;70.86;100231.84;4965242;28;98281;-89
2022/11/07 08:07:02;;;;;;;22.23;11.90;;;;;;;9.41;70.57;100232.31;4991738;28;96711;-89
2022/11/07 08:09:30;;;;;;;18.90;10.40;;;;;;;9.32;70.81;100215.13;4943023;28;96932;-89
2022/11/07 08:11:56;;;;;;;14.77;9.50;;;;;;;9.37;70.57;100228.94;4941387;28;101561;-91
2022/11/07 08:14:21;;;;;;;13.77;8.73;;;;;;;9.50;70.23;100234.66;4949400;28;101695;-91
2022/11/07 08:16:47;;;;;;;15.20;9.15;;;;;;;9.48;70.00;100223.34;4968976;28;96785;-88
2022/11/07 08:19:12;;;;;;;12.18;8.07;;;;;;;9.56;69.88;100226.59;4973225;28;96989;-87
2022/11/07 08:21:38;;;;;;;13.55;7.93;;;;;;;9.56;70.07;100220.50;4947969;28;101026;-87
2022/11/07 08:24:03;;;;;;;14.50;9.23;;;;;;;9.61;70.02;100216.00;4974965;28;99817;-88
2022/11/07 08:26:30;;;;;;;15.65;8.13;;;;;;;9.78;70.00;100244.28;4958369;28;96739;-87
2022/11/07 08:28:55;;;;;;;14.65;8.63;;;;;;;9.78;69.39;100239.91;4954888;28;97454;-89
2022/11/07 08:31:21;;;;;;;17.08;9.05;;;;;;;9.89;69.14;100250.03;4958437;28;101767;-89
2022/11/07 08:33:47;;;;;;;12.10;7.43;;;;;;;9.96;69.15;100241.91;4938200;28;99869;-86
2022/11/07 08:36:12;;;;;;;12.93;6.90;;;;;;;10.10;68.75;100238.00;4953688;28;97777;-88
2022/11/07 08:38:38;;;;;;;11.57;7.38;;;;;;;10.26;68.80;100248.81;4974891;28;97126;-88
2022/11/07 08:41:04;;;;;;;10.95;6.43;;;;;;;10.13;68.66;100233.50;4960720;28;102206;-86
2022/11/07 08:43:29;;;;;;;15.02;7.05;;;;;;;10.02;68.97;100219.03;4953384;28;101327;-88
2022/11/07 08:45:55;;;;;;;12.25;7.20;;;;;;;10.26;69.04;100261.94;4983273;28;97253;-94
2022/11/07 08:48:21;;;;;;;12.00;7.00;;;;;;;10.24;68.93;100258.50;4993458;28;96971;-93
2022/11/07 08:50:54;;;;;;;11.93;6.78;;;;;;;10.27;68.92;100258.41;4973362;28;101620;-91
2022/11/07 08:53:21;;;;;;;13.77;7.97;;;;;;;10.27;68.72;100269.81;4972078;28;101359;-90
2022/11/07 08:55:46;;;;;;;12.13;7.93;;;;;;;10.20;68.91;100258.59;4958019;28;97433;-89
2022/11/07 08:58:13;;;;;;;10.00;6.93;;;;;;;10.29;68.62;100254.00;4979239;28;97778;-89
2022/11/07 09:00:39;;;;;;;10.32;6.38;;;;;;;10.34;68.65;100276.53;4956856;28;98070;-92
2022/11/07 09:03:06;;;;;;;9.38;6.07;;;;;;;10.24;68.60;100256.75;4972265;28;100658;-92
2022/11/07 09:05:31;;;;;;;10.98;6.85;;;;;;;10.37;68.66;100275.59;4958756;28;96779;-90
2022/11/07 09:07:57;;;;;;;17.42;7.82;;;;;;;10.43;68.59;100281.47;4952290;28;97069;-91
2022/11/07 09:10:23;;;;;;;10.77;6.85;;;;;;;10.42;68.29;100279.78;4972831;28;100180;-91
2022/11/07 09:12:49;;;;;;;11.57;6.45;;;;;;;10.29;67.99;100254.84;4941848;28;101370;-89
2022/11/07 09:15:15;;;;;;;18.38;7.22;;;;;;;10.33;68.41;100247.75;4962568;28;97139;-92
2022/11/07 09:17:42;;;;;;;10.77;7.25;;;;;;;10.39;67.34;100260.66;4942462;28;96905;-92
2022/11/07 09:20:08;;;;;;;11.73;8.05;;;;;;;10.45;67.79;100280.59;4954414;28;101601;-89
2022/11/07 09:22:34;;;;;;;13.05;7.85;;;;;;;10.53;67.45;100270.66;4984722;28;100038;-89
2022/11/07 09:25:00;;;;;;;17.02;8.82;;;;;;;10.50;66.75;100273.38;4935750;28;97831;-91
2022/11/07 09:27:25;;;;;;;13.48;7.90;;;;;;;10.48;67.34;100270.84;4953184;28;97541;-92
2022/11/07 09:29:51;;;;;;;13.20;8.13;;;;;;;10.46;66.96;100264.78;4957771;28;98375;-91
2022/11/07 09:32:16;;;;;;;12.30;7.68;;;;;;;10.47;66.40;100268.25;4968215;28;97507;-88
2022/11/07 09:34:45;;;;;;;14.43;7.60;;;;;;;10.58;66.52;100281.84;4942198;28;97272;-92
2022/11/07 09:37:10;;;;;;;12.82;7.18;;;;;;;10.56;66.63;100275.78;4962752;28;97359;-92
2022/11/07 09:39:36;;;;;;;12.43;8.18;;;;;;;10.61;66.38;100279.97;4978477;28;100624;-90
2022/11/07 09:42:07;;;;;;;12.98;7.97;;;;;;;10.67;66.78;100288.56;4973715;28;98057;-91
2022/11/07 09:44:58;;;;;;;12.70;8.45;;;;;;;10.69;66.90;100284.97;4975819;28;96839;-92
2022/11/07 09:47:27;;;;;;;12.47;8.20;;;;;;;10.72;66.76;100295.38;4962160;28;96909;-91
2022/11/07 09:49:56;;;;;;;14.18;8.68;;;;;;;10.63;67.06;100272.06;4963888;28;98518;-93
2022/11/07 09:52:43;;;;;;;10.07;7.35;;;;;;;10.77;66.55;100275.06;4974521;28;101463;-92
2022/11/07 09:55:16;;;;;;;13.10;7.88;;;;;;;10.92;66.09;100275.44;4977593;28;97046;-92
2022/11/07 09:57:41;;;;;;;15.30;7.97;;;;;;;10.96;66.12;100258.63;4942440;28;98042;-93
2022/11/07 10:00:18;;;;;;;11.38;7.15;;;;;;;11.12;66.28;100274.72;4956221;28;101261;-94
2022/11/07 10:02:49;;;;;;;10.45;6.90;;;;;;;11.18;66.10;100246.44;4972425;28;98004;-94
2022/11/07 10:05:20;;;;;;;7.40;5.47;;;;;;;11.38;65.57;100269.31;4984813;28;97334;-90
2022/11/07 10:08:11;;;;;;;6.65;4.90;;;;;;;11.45;65.26;100262.06;4980358;28;96654;-95
2022/11/07 10:10:51;;;;;;;8.43;5.63;;;;;;;11.45;65.22;100251.53;4971190;28;98543;-95
2022/11/07 10:13:26;;;;;;;8.10;5.60;;;;;;;11.59;63.77;100241.34;4960731;28;101623;-93
2022/11/07 10:16:01;;;;;;;8.30;4.82;;;;;;;11.76;64.49;100252.06;4958364;28;97604;-92
2022/11/07 10:18:38;;;;;;;11.68;5.28;;;;;;;11.98;63.39;100262.59;4965188;28;97328;-94
2022/11/07 10:21:24;;;;;;;5.85;4.35;;;;;;;12.21;63.67;100269.53;4986530;28;100869;-92
2022/11/07 10:24:15;;;;;;;6.50;4.70;;;;;;;12.50;62.41;100269.22;4971075;28;99851;-94
2022/11/07 10:26:43;;;;;;;8.23;4.82;;;;;;;12.55;62.28;100259.38;4963401;28;97233;-92
2022/11/07 10:29:26;;;;;;;8.98;4.63;;;;;;;12.45;61.43;100266.81;5130418;22;98009;-93
2022/11/07 10:31:58;;;;;;;8.77;4.18;;;;;;;12.44;62.12;100265.09;4973814;28;100116;-94
2022/11/07 10:34:35;;;;;;;10.07;4.60;;;;;;;12.49;62.09;100270.16;4994330;28;98466;-93
2022/11/07 10:37:01;;;;;;;5.70;3.80;;;;;;;12.46;62.21;100261.47;4980193;28;97212;-94
2022/11/07 10:39:27;;;;;;;7.38;4.75;;;;;;;12.55;62.69;100265.47;4990309;28;97620;-92
2022/11/07 10:42:06;;;;;;;5.85;3.67;;;;;;;12.66;62.32;100260.59;4981882;28;99555;-94
2022/11/07 10:44:33;;;;;;;6.00;2.90;;;;;;;12.77;62.26;100262.78;4965746;28;100584;-91
2022/11/07 10:47:02;;;;;;;5.70;2.83;;;;;;;12.67;61.72;100254.41;4987665;28;97116;-94
2022/11/07 10:49:30;;;;;;;5.07;2.97;;;;;;;12.37;62.04;100218.91;4975325;28;96586;-93
2022/11/07 10:52:20;;;;;;;5.57;2.60;;;;;;;12.24;61.68;100211.50;4997655;28;99890;-90
2022/11/07 10:54:46;;;;;;;3.38;2.53;;;;;;;12.28;62.17;100227.19;4981917;28;96849;-93
2022/11/07 10:57:15;;;;;;;6.03;2.65;;;;;;;12.14;62.33;100212.81;4983998;28;96917;-95
2022/11/07 10:59:56;;;;;;;6.43;3.00;;;;;;;12.19;62.80;100223.16;5050386;22;97065;-91
2022/11/07 11:02:26;;;;;;;3.45;2.38;;;;;;;12.08;62.91;100189.41;5008226;28;100246;-90
2022/11/07 11:04:59;;;;;;;7.70;2.35;;;;;;;12.39;62.65;100249.50;4975016;28;101044;-85
2022/11/07 11:07:31;;;;;;;5.85;2.33;;;;;;;12.53;62.63;100259.41;5007585;28;97207;-90
2022/11/07 11:09:57;;;;;;;6.43;2.38;;;;;;;12.33;62.49;100227.81;4955137;28;97313;-91
2022/11/07 11:12:29;;;;;;;4.15;2.63;;;;;;;12.30;63.74;100218.28;4982855;28;100569;-88
2022/11/07 11:15:11;;;;;;;6.15;2.50;;;;;;;12.51;63.15;100260.41;4994275;28;100066;-88
2022/11/07 11:17:36;;;;;;;4.50;2.10;;;;;;;12.52;63.54;100254.22;5008637;28;97276;-85
2022/11/07 11:20:04;;;;;;;3.25;2.28;;;;;;;12.57;63.83;100249.63;4991520;28;96957;-92
2022/11/07 11:22:29;;;;;;;4.00;2.00;;;;;;;12.52;63.64;100239.28;4975765;28;98629;-92
2022/11/07 11:25:03;;;;;;;3.42;2.00;;;;;;;12.44;63.81;100217.69;4983295;28;99940;-93
2022/11/07 11:27:30;;;;;;;2.30;1.80;;;;;;;12.62;63.63;100247.63;4984158;28;99479;-84
2022/11/07 11:30:05;;;;;;;5.28;2.55;;;;;;;12.56;62.98;100237.38;4989327;28;97222;-85